Time;durP1;ratioP1;P1;durP2;ratioP2;P2;SDS_P1;SDS_P2;PMS_P1;PMS_P2;Temp;Humidity;BMP_temperature;BMP_pressure;BME280_temperature;BME280_humidity;BME280_pressure;Samples;Min_cycle;Max_cycle;Signal;HPM_P1;HPM_P2
2023/05/23 00:18:11;;;;;;;3.55;3.10;;;;;;;24.61;47.86;100037.00;39686647;29;20047;-84
2023/05/23 00:38:11;;;;;;;3.78;3.08;;;;;;;24.61;47.96;100029.06;39691271;29;20462;-86
2023/05/23 00:58:14;;;;;;;5.28;3.10;;;;;;;24.53;48.14;100028.97;39691497;29;20062;-85
2023/05/23 01:18:25;;;;;;;4.40;3.40;;;;;;;24.55;48.06;100019.91;39681728;29;20046;-83
2023/05/23 01:38:26;;;;;;;3.33;2.83;;;;;;;24.53;48.16;100018.41;39675703;29;20061;-84
2023/05/23 01:58:26;;;;;;;4.32;2.95;;;;;;;24.49;48.05;100017.88;39674005;29;20586;-87
2023/05/23 02:18:28;;;;;;;3.47;3.10;;;;;;;24.45;48.12;99997.97;39699054;29;20110;-86
2023/05/23 02:38:29;;;;;;;4.53;2.95;;;;;;;24.48;47.72;100010.91;39556534;29;20051;-86
2023/05/23 02:58:30;;;;;;;4.03;2.67;;;;;;;24.47;47.94;99990.72;39525885;29;20065;-83
2023/05/23 03:18:31;;;;;;;4.15;3.00;;;;;;;24.46;47.60;99991.69;39552232;29;20047;-87
2023/05/23 03:38:31;;;;;;;3.60;3.10;;;;;;;24.45;47.73;100003.28;39663758;29;20099;-86
2023/05/23 03:58:32;;;;;;;4.60;3.00;;;;;;;24.46;47.63;99995.19;39681051;29;20048;-87
2023/05/23 04:18:32;;;;;;;5.88;3.28;;;;;;;24.44;48.20;99999.78;39645355;29;20112;-80
2023/05/23 04:38:32;;;;;;;13.32;3.65;;;;;;;24.16;46.82;100004.28;39617484;29;20116;-80
2023/05/23 04:58:33;;;;;;;8.90;3.60;;;;;;;23.53;45.77;99999.66;39603228;29;20063;-76
2023/05/23 05:18:35;;;;;;;8.25;3.33;;;;;;;23.89;46.54;100005.91;39658028;29;20059;-78
2023/05/23 05:38:35;;;;;;;5.15;3.30;;;;;;;24.08;47.28;99994.44;39643837;29;20126;-76
2023/05/23 05:58:35;;;;;;;6.40;3.10;;;;;;;24.17;47.65;99991.88;39623553;29;20602;-78
2023/05/23 06:18:36;;;;;;;5.75;2.80;;;;;;;24.25;47.67;99984.84;39669223;29;20067;-76
2023/05/23 06:38:36;;;;;;;5.65;3.08;;;;;;;24.33;47.83;99996.50;39657118;29;21716;-79
2023/05/23 06:58:37;;;;;;;5.63;3.20;;;;;;;24.39;47.93;99985.31;39677232;29;20054;-80
2023/05/23 07:18:37;;;;;;;6.50;4.07;;;;;;;24.25;46.15;99963.69;39694607;29;20047;-82
2023/05/23 07:38:38;;;;;;;7.00;3.42;;;;;;;24.37;47.05;99958.19;39697605;29;20049;-84
2023/05/23 07:58:38;;;;;;;5.65;3.55;;;;;;;24.44;47.83;99956.63;39751577;29;20051;-82
2023/05/23 08:18:40;;;;;;;4.63;3.20;;;;;;;24.49;48.12;99945.59;39709698;29;20078;-83
2023/05/23 08:38:40;;;;;;;5.15;3.40;;;;;;;24.55;48.43;99955.56;39720920;29;20038;-82
2023/05/23 08:58:47;;;;;;;5.18;3.80;;;;;;;24.61;48.44;99949.66;39807089;29;20087;-81
2023/05/23 09:18:49;;;;;;;16.90;4.82;;;;;;;24.57;45.91;99940.34;39714099;29;20049;-85
2023/05/23 09:38:51;;;;;;;7.82;4.22;;;;;;;24.62;46.60;99938.09;39755135;29;20053;-83
2023/05/23 09:58:53;;;;;;;5.18;4.47;;;;;;;24.72;46.29;99933.56;39753196;29;20044;-85
2023/05/23 10:19:01;;;;;;;7.03;4.30;;;;;;;24.94;46.14;99916.34;39723190;29;20044;-82
2023/05/23 10:39:18;;;;;;;7.30;3.63;;;;;;;25.02;44.21;99901.50;39720018;29;20066;-87
2023/05/23 10:59:26;;;;;;;6.15;3.80;;;;;;;25.09;43.40;99884.00;39703037;29;20043;-89
2023/05/23 11:19:28;;;;;;;6.25;3.85;;;;;;;25.31;43.13;99858.75;39680653;29;20827;-85
2023/05/23 11:39:31;;;;;;;5.57;4.47;;;;;;;25.49;43.21;99840.16;39660269;29;20127;-83
2023/05/23 11:59:33;;;;;;;6.70;5.13;;;;;;;25.68;42.99;99807.22;39673199;29;20225;-82
2023/05/23 12:19:34;;;;;;;10.52;5.05;;;;;;;25.87;42.61;99778.75;39713676;29;20066;-82
2023/05/23 12:39:43;;;;;;;7.28;5.10;;;;;;;26.17;43.28;99749.91;39715387;29;20054;-84
2023/05/23 12:59:45;;;;;;;11.15;4.60;;;;;;;26.42;43.10;99740.09;39727063;29;20509;-84
2023/05/23 13:19:46;;;;;;;6.15;3.92;;;;;;;26.52;41.61;99708.88;39693465;29;20084;-79
2023/05/23 13:39:46;;;;;;;7.85;3.50;;;;;;;26.66;40.66;99703.88;39507396;29;20100;-77
2023/05/23 13:59:47;;;;;;;5.63;4.18;;;;;;;26.73;39.85;99691.53;39548609;29;20129;-79
2023/05/23 14:19:47;;;;;;;6.85;3.90;;;;;;;26.68;39.68;99676.13;39529456;29;20079;-77
2023/05/23 14:39:49;;;;;;;8.52;3.92;;;;;;;26.74;39.71;99679.09;39637919;29;20055;-77
2023/05/23 14:59:49;;;;;;;5.78;3.50;;;;;;;26.74;39.67;99679.91;39653496;29;20054;-77
2023/05/23 15:19:50;;;;;;;8.80;3.33;;;;;;;26.78;39.89;99677.75;39645655;29;20048;-77
2023/05/23 15:39:50;;;;;;;5.55;3.55;;;;;;;26.63;39.64;99698.88;39654398;29;20527;-79
2023/05/23 15:59:50;;;;;;;5.47;3.60;;;;;;;26.62;41.41;99697.22;39632419;29;20453;-87
2023/05/23 16:19:51;;;;;;;7.05;3.50;;;;;;;26.37;39.67;99686.69;39660032;29;20078;-81
2023/05/23 16:39:52;;;;;;;6.90;3.70;;;;;;;26.20;39.49;99686.72;39633585;29;20069;-77
2023/05/23 16:59:53;;;;;;;8.10;4.85;;;;;;;26.02;40.75;99710.78;39646094;29;20066;-78
2023/05/23 17:19:55;;;;;;;7.72;4.22;;;;;;;25.79;40.77;99806.06;39666764;29;20063;-78
2023/05/23 17:39:55;;;;;;;8.82;4.10;;;;;;;25.19;41.56;99849.44;39642225;29;20038;-80
2023/05/23 17:59:56;;;;;;;8.65;3.50;;;;;;;24.86;42.67;99891.63;39664395;29;20051;-78
2023/05/23 18:19:56;;;;;;;6.63;3.53;;;;;;;24.60;44.04;99913.56;39690123;29;20170;-77
2023/05/23 18:39:59;;;;;;;5.75;3.17;;;;;;;24.44;44.03;99920.38;39662369;29;20058;-79
2023/05/23 18:59:59;;;;;;;4.00;3.00;;;;;;;24.38;43.95;99954.56;39692341;29;20051;-82
2023/05/23 19:20:00;;;;;;;4.65;3.15;;;;;;;24.62;44.01;99953.97;39679272;29;20075;-80
2023/05/23 19:40:00;;;;;;;6.68;2.70;;;;;;;24.75;44.24;99977.44;39704915;29;20046;-80
2023/05/23 20:00:01;;;;;;;6.47;2.75;;;;;;;24.75;44.87;99916.53;39712788;29;20605;-82
2023/05/23 20:20:03;;;;;;;4.65;2.78;;;;;;;24.69;45.06;99944.44;39699278;29;20066;-82
2023/05/23 20:40:06;;;;;;;3.90;2.90;;;;;;;24.61;45.46;99953.13;39715288;29;20076;-80
2023/05/23 21:00:11;;;;;;;3.08;2.80;;;;;;;24.57;45.82;99946.47;39686655;29;20492;-80
2023/05/23 21:20:12;;;;;;;4.65;3.10;;;;;;;24.45;46.67;99987.41;39689695;29;20054;-84
2023/05/23 21:40:13;;;;;;;4.07;3.20;;;;;;;24.36;47.05;100022.69;39688211;29;20050;-82
2023/05/23 22:00:14;;;;;;;4.13;3.53;;;;;;;24.24;47.37;100025.53;39699205;29;20439;-83
2023/05/23 22:20:14;;;;;;;5.13;3.28;;;;;;;24.17;47.64;100052.72;39678762;29;20072;-85
2023/05/23 22:40:15;;;;;;;3.08;2.78;;;;;;;24.09;47.69;100038.41;39669122;29;20104;-82
2023/05/23 23:00:16;;;;;;;3.22;2.83;;;;;;;23.98;48.28;100033.31;39671691;29;20059;-82
2023/05/23 23:20:18;;;;;;;3.30;3.00;;;;;;;23.92;48.50;100029.44;39692984;29;20181;-82
2023/05/23 23:40:18;;;;;;;4.05;2.70;;;;;;;23.88;48.31;100030.69;39671823;29;20774;-83
